Kimberlin Heights, Tennessee
Current Conditions -  °F | °C
As of 9:53 PM on Tuesday 25 Nov 2014 (Local Time) from KTYS Reporting Station
Overcast Overcast  
Wind Chill: 47°   Ceiling: 13000
Heat Index: 49°   Visibility: 10mi
Dew Point: 30°   Wind: 6mph
Humidity: 48%   Direction: 360°N
Pressure: 30.07"   Gusts: NA
Location:  35.9105°N, 83.8544°W
Report Text: KTYS 260253Z 36005KT 10SM BKN130 OVC250 09/M01 A3007 RMK AO2 SLP183 T00941011 50013
Loading
Personal Weather Stations






























Interactive Weather Map New forecast layout! Learn more

10-Day Weather Forecast

Advertisements
Track Severe Weather on mobile